sensor_id;sensor_type;location;lat;lon;timestamp;P1;durP1;ratioP1;P2;durP2;ratioP2
71353;SDS011;59393;51.652;4.864;2023-02-28T00:01:28;9.63;;;2.33;;
71353;SDS011;59393;51.652;4.864;2023-02-28T00:03:54;5.78;;;2.10;;
71353;SDS011;59393;51.652;4.864;2023-02-28T00:06:21;5.40;;;1.73;;
71353;SDS011;59393;51.652;4.864;2023-02-28T00:08:47;7.32;;;2.00;;
71353;SDS011;59393;51.652;4.864;2023-02-28T00:11:14;6.90;;;2.23;;
71353;SDS011;59393;51.652;4.864;2023-02-28T00:13:41;5.80;;;2.00;;
71353;SDS011;59393;51.652;4.864;2023-02-28T00:16:11;5.90;;;1.92;;
71353;SDS011;59393;51.652;4.864;2023-02-28T00:18:38;7.38;;;1.90;;
71353;SDS011;59393;51.652;4.864;2023-02-28T00:21:04;5.50;;;2.20;;
71353;SDS011;59393;51.652;4.864;2023-02-28T00:23:30;7.27;;;2.10;;
71353;SDS011;59393;51.652;4.864;2023-02-28T00:25:56;5.68;;;1.83;;
71353;SDS011;59393;51.652;4.864;2023-02-28T00:28:23;4.53;;;1.90;;
71353;SDS011;59393;51.652;4.864;2023-02-28T00:30:49;14.32;;;2.22;;
71353;SDS011;59393;51.652;4.864;2023-02-28T00:33:15;5.75;;;1.83;;
71353;SDS011;59393;51.652;4.864;2023-02-28T00:35:41;6.77;;;2.30;;
71353;SDS011;59393;51.652;4.864;2023-02-28T00:38:07;5.90;;;1.80;;
71353;SDS011;59393;51.652;4.864;2023-02-28T00:40:33;19.20;;;7.18;;
71353;SDS011;59393;51.652;4.864;2023-02-28T00:42:59;20.35;;;6.78;;
71353;SDS011;59393;51.652;4.864;2023-02-28T00:45:25;10.80;;;3.65;;
71353;SDS011;59393;51.652;4.864;2023-02-28T00:47:51;8.27;;;2.87;;
71353;SDS011;59393;51.652;4.864;2023-02-28T00:50:18;8.40;;;2.33;;
71353;SDS011;59393;51.652;4.864;2023-02-28T00:52:45;7.55;;;2.22;;
71353;SDS011;59393;51.652;4.864;2023-02-28T00:55:11;5.70;;;1.90;;
71353;SDS011;59393;51.652;4.864;2023-02-28T00:57:37;5.87;;;1.90;;
71353;SDS011;59393;51.652;4.864;2023-02-28T01:00:03;7.22;;;1.88;;
71353;SDS011;59393;51.652;4.864;2023-02-28T01:02:29;6.68;;;2.45;;
71353;SDS011;59393;51.652;4.864;2023-02-28T01:04:55;6.60;;;1.75;;
71353;SDS011;59393;51.652;4.864;2023-02-28T01:07:22;5.87;;;2.00;;
71353;SDS011;59393;51.652;4.864;2023-02-28T01:09:48;6.28;;;2.15;;
71353;SDS011;59393;51.652;4.864;2023-02-28T01:12:14;8.77;;;2.00;;
71353;SDS011;59393;51.652;4.864;2023-02-28T01:14:40;6.32;;;2.17;;
71353;SDS011;59393;51.652;4.864;2023-02-28T01:17:06;11.73;;;2.30;;
71353;SDS011;59393;51.652;4.864;2023-02-28T01:19:32;5.80;;;1.87;;
71353;SDS011;59393;51.652;4.864;2023-02-28T01:22:05;5.45;;;2.08;;
71353;SDS011;59393;51.652;4.864;2023-02-28T01:24:32;6.85;;;1.90;;
71353;SDS011;59393;51.652;4.864;2023-02-28T01:26:58;5.50;;;1.67;;
71353;SDS011;59393;51.652;4.864;2023-02-28T01:29:24;7.95;;;2.08;;
71353;SDS011;59393;51.652;4.864;2023-02-28T01:31:50;7.17;;;2.40;;
71353;SDS011;59393;51.652;4.864;2023-02-28T01:34:16;6.72;;;1.90;;
71353;SDS011;59393;51.652;4.864;2023-02-28T01:36:44;5.10;;;1.67;;
71353;SDS011;59393;51.652;4.864;2023-02-28T01:39:10;6.60;;;2.28;;
71353;SDS011;59393;51.652;4.864;2023-02-28T01:41:37;5.88;;;1.88;;
71353;SDS011;59393;51.652;4.864;2023-02-28T01:44:53;5.57;;;1.97;;
71353;SDS011;59393;51.652;4.864;2023-02-28T01:46:52;6.72;;;1.90;;
71353;SDS011;59393;51.652;4.864;2023-02-28T01:49:18;4.80;;;1.77;;
71353;SDS011;59393;51.652;4.864;2023-02-28T01:51:45;6.40;;;1.70;;
71353;SDS011;59393;51.652;4.864;2023-02-28T01:54:26;7.27;;;2.00;;
71353;SDS011;59393;51.652;4.864;2023-02-28T01:56:54;6.60;;;1.80;;
71353;SDS011;59393;51.652;4.864;2023-02-28T01:59:26;3.75;;;1.27;;
71353;SDS011;59393;51.652;4.864;2023-02-28T02:01:53;4.28;;;1.55;;
71353;SDS011;59393;51.652;4.864;2023-02-28T02:04:19;10.18;;;1.83;;
71353;SDS011;59393;51.652;4.864;2023-02-28T02:06:47;6.37;;;1.83;;
71353;SDS011;59393;51.652;4.864;2023-02-28T02:09:13;12.95;;;1.92;;
71353;SDS011;59393;51.652;4.864;2023-02-28T02:11:40;5.70;;;1.52;;
71353;SDS011;59393;51.652;4.864;2023-02-28T02:19:14;5.80;;;1.80;;
71353;SDS011;59393;51.652;4.864;2023-02-28T02:27:22;5.25;;;1.90;;
71353;SDS011;59393;51.652;4.864;2023-02-28T02:30:07;4.90;;;1.63;;
71353;SDS011;59393;51.652;4.864;2023-02-28T02:37:54;6.68;;;2.00;;
71353;SDS011;59393;51.652;4.864;2023-02-28T02:40:23;4.78;;;1.58;;
71353;SDS011;59393;51.652;4.864;2023-02-28T02:42:52;7.68;;;2.08;;
71353;SDS011;59393;51.652;4.864;2023-02-28T02:45:30;4.23;;;1.60;;
71353;SDS011;59393;51.652;4.864;2023-02-28T02:48:00;4.20;;;1.50;;
71353;SDS011;59393;51.652;4.864;2023-02-28T02:50:29;7.20;;;2.10;;
71353;SDS011;59393;51.652;4.864;2023-02-28T02:52:57;5.15;;;1.40;;
71353;SDS011;59393;51.652;4.864;2023-02-28T02:55:25;7.60;;;1.67;;
71353;SDS011;59393;51.652;4.864;2023-02-28T02:57:53;7.23;;;1.73;;
71353;SDS011;59393;51.652;4.864;2023-02-28T03:00:21;5.97;;;1.70;;
71353;SDS011;59393;51.652;4.864;2023-02-28T03:02:49;6.88;;;1.88;;
71353;SDS011;59393;51.652;4.864;2023-02-28T03:05:19;9.57;;;2.05;;
71353;SDS011;59393;51.652;4.864;2023-02-28T03:07:47;5.00;;;1.60;;
71353;SDS011;59393;51.652;4.864;2023-02-28T03:15:47;6.32;;;2.10;;
71353;SDS011;59393;51.652;4.864;2023-02-28T03:18:24;5.22;;;2.00;;
71353;SDS011;59393;51.652;4.864;2023-02-28T03:20:55;8.23;;;1.93;;
71353;SDS011;59393;51.652;4.864;2023-02-28T03:23:38;6.38;;;1.98;;
71353;SDS011;59393;51.652;4.864;2023-02-28T03:26:15;7.05;;;1.92;;
71353;SDS011;59393;51.652;4.864;2023-02-28T03:28:43;7.07;;;1.90;;
71353;SDS011;59393;51.652;4.864;2023-02-28T03:31:16;6.45;;;1.83;;
71353;SDS011;59393;51.652;4.864;2023-02-28T03:33:45;5.30;;;1.80;;
71353;SDS011;59393;51.652;4.864;2023-02-28T03:36:19;6.13;;;2.20;;
71353;SDS011;59393;51.652;4.864;2023-02-28T03:41:21;6.28;;;2.20;;
71353;SDS011;59393;51.652;4.864;2023-02-28T03:43:52;5.80;;;1.83;;
71353;SDS011;59393;51.652;4.864;2023-02-28T03:46:20;7.60;;;2.43;;
71353;SDS011;59393;51.652;4.864;2023-02-28T03:48:49;7.68;;;2.47;;
71353;SDS011;59393;51.652;4.864;2023-02-28T03:51:17;6.55;;;1.95;;
71353;SDS011;59393;51.652;4.864;2023-02-28T03:53:46;5.53;;;1.90;;
71353;SDS011;59393;51.652;4.864;2023-02-28T04:01:12;6.47;;;2.30;;
71353;SDS011;59393;51.652;4.864;2023-02-28T04:03:39;12.68;;;2.05;;
71353;SDS011;59393;51.652;4.864;2023-02-28T04:06:05;8.13;;;2.53;;
71353;SDS011;59393;51.652;4.864;2023-02-28T04:08:32;6.50;;;2.30;;
71353;SDS011;59393;51.652;4.864;2023-02-28T04:11:04;6.63;;;2.43;;
71353;SDS011;59393;51.652;4.864;2023-02-28T04:13:32;6.18;;;2.20;;
71353;SDS011;59393;51.652;4.864;2023-02-28T04:15:58;7.93;;;2.42;;
71353;SDS011;59393;51.652;4.864;2023-02-28T04:18:24;9.40;;;3.17;;
71353;SDS011;59393;51.652;4.864;2023-02-28T04:20:50;10.27;;;2.60;;
71353;SDS011;59393;51.652;4.864;2023-02-28T04:23:16;10.47;;;2.80;;
71353;SDS011;59393;51.652;4.864;2023-02-28T04:25:41;11.20;;;2.55;;
71353;SDS011;59393;51.652;4.864;2023-02-28T04:28:08;9.93;;;2.47;;
71353;SDS011;59393;51.652;4.864;2023-02-28T04:30:34;8.77;;;2.10;;
71353;SDS011;59393;51.652;4.864;2023-02-28T04:33:01;5.20;;;1.93;;
71353;SDS011;59393;51.652;4.864;2023-02-28T04:35:27;15.90;;;2.35;;
71353;SDS011;59393;51.652;4.864;2023-02-28T04:37:53;6.60;;;2.20;;
71353;SDS011;59393;51.652;4.864;2023-02-28T04:40:19;7.10;;;2.08;;
71353;SDS011;59393;51.652;4.864;2023-02-28T04:42:45;6.18;;;2.42;;
71353;SDS011;59393;51.652;4.864;2023-02-28T04:45:11;8.52;;;2.17;;
71353;SDS011;59393;51.652;4.864;2023-02-28T04:47:37;10.38;;;2.45;;
71353;SDS011;59393;51.652;4.864;2023-02-28T04:50:03;6.72;;;2.33;;
71353;SDS011;59393;51.652;4.864;2023-02-28T04:52:30;6.77;;;2.23;;
71353;SDS011;59393;51.652;4.864;2023-02-28T04:54:56;7.55;;;2.75;;
71353;SDS011;59393;51.652;4.864;2023-02-28T04:57:22;8.35;;;2.72;;
71353;SDS011;59393;51.652;4.864;2023-02-28T04:59:48;6.95;;;2.45;;
71353;SDS011;59393;51.652;4.864;2023-02-28T05:02:14;7.17;;;2.77;;
71353;SDS011;59393;51.652;4.864;2023-02-28T05:04:40;9.90;;;2.67;;
71353;SDS011;59393;51.652;4.864;2023-02-28T05:07:06;9.80;;;2.40;;
71353;SDS011;59393;51.652;4.864;2023-02-28T05:09:32;10.35;;;2.78;;
71353;SDS011;59393;51.652;4.864;2023-02-28T05:11:58;8.80;;;2.57;;
71353;SDS011;59393;51.652;4.864;2023-02-28T05:14:24;5.10;;;2.03;;
71353;SDS011;59393;51.652;4.864;2023-02-28T05:16:50;6.25;;;2.00;;
71353;SDS011;59393;51.652;4.864;2023-02-28T05:19:16;8.20;;;2.75;;
71353;SDS011;59393;51.652;4.864;2023-02-28T05:22:15;10.47;;;3.97;;
71353;SDS011;59393;51.652;4.864;2023-02-28T05:24:34;12.82;;;6.00;;
71353;SDS011;59393;51.652;4.864;2023-02-28T05:27:00;16.58;;;6.97;;
71353;SDS011;59393;51.652;4.864;2023-02-28T05:29:26;14.80;;;6.53;;
71353;SDS011;59393;51.652;4.864;2023-02-28T05:31:52;16.45;;;6.22;;
71353;SDS011;59393;51.652;4.864;2023-02-28T05:34:18;12.10;;;5.13;;
71353;SDS011;59393;51.652;4.864;2023-02-28T05:36:44;11.75;;;5.55;;
71353;SDS011;59393;51.652;4.864;2023-02-28T05:39:10;13.40;;;4.63;;
71353;SDS011;59393;51.652;4.864;2023-02-28T05:41:37;10.82;;;4.40;;
71353;SDS011;59393;51.652;4.864;2023-02-28T05:44:03;12.90;;;4.18;;
71353;SDS011;59393;51.652;4.864;2023-02-28T05:46:29;11.43;;;3.23;;
71353;SDS011;59393;51.652;4.864;2023-02-28T05:48:55;10.63;;;3.95;;
71353;SDS011;59393;51.652;4.864;2023-02-28T05:51:24;8.43;;;2.85;;
71353;SDS011;59393;51.652;4.864;2023-02-28T05:53:50;7.10;;;2.67;;
71353;SDS011;59393;51.652;4.864;2023-02-28T05:56:16;7.30;;;2.80;;
71353;SDS011;59393;51.652;4.864;2023-02-28T05:58:42;7.70;;;2.92;;
71353;SDS011;59393;51.652;4.864;2023-02-28T06:01:26;7.90;;;2.63;;
71353;SDS011;59393;51.652;4.864;2023-02-28T06:03:56;8.13;;;2.70;;
71353;SDS011;59393;51.652;4.864;2023-02-28T06:06:22;8.18;;;2.70;;
71353;SDS011;59393;51.652;4.864;2023-02-28T06:08:48;7.40;;;3.20;;
71353;SDS011;59393;51.652;4.864;2023-02-28T06:11:14;9.73;;;2.67;;
71353;SDS011;59393;51.652;4.864;2023-02-28T06:13:40;7.55;;;2.28;;
71353;SDS011;59393;51.652;4.864;2023-02-28T06:16:07;7.47;;;2.08;;
71353;SDS011;59393;51.652;4.864;2023-02-28T06:18:33;4.87;;;2.00;;
71353;SDS011;59393;51.652;4.864;2023-02-28T06:20:59;7.60;;;2.70;;
71353;SDS011;59393;51.652;4.864;2023-02-28T06:23:25;5.55;;;2.15;;
71353;SDS011;59393;51.652;4.864;2023-02-28T06:25:52;9.02;;;1.80;;
71353;SDS011;59393;51.652;4.864;2023-02-28T06:28:18;5.35;;;2.03;;
71353;SDS011;59393;51.652;4.864;2023-02-28T06:30:44;7.73;;;2.40;;
71353;SDS011;59393;51.652;4.864;2023-02-28T06:33:10;4.90;;;1.85;;
71353;SDS011;59393;51.652;4.864;2023-02-28T06:35:36;6.97;;;2.47;;
71353;SDS011;59393;51.652;4.864;2023-02-28T06:38:03;5.35;;;2.10;;
71353;SDS011;59393;51.652;4.864;2023-02-28T06:40:29;8.63;;;2.17;;
71353;SDS011;59393;51.652;4.864;2023-02-28T06:42:59;5.23;;;2.00;;
71353;SDS011;59393;51.652;4.864;2023-02-28T06:45:24;7.47;;;2.13;;
71353;SDS011;59393;51.652;4.864;2023-02-28T06:47:51;7.55;;;2.20;;
71353;SDS011;59393;51.652;4.864;2023-02-28T06:50:18;8.48;;;2.05;;
71353;SDS011;59393;51.652;4.864;2023-02-28T06:52:45;5.10;;;1.85;;
71353;SDS011;59393;51.652;4.864;2023-02-28T06:55:11;5.13;;;1.87;;
71353;SDS011;59393;51.652;4.864;2023-02-28T06:57:37;5.85;;;1.98;;
71353;SDS011;59393;51.652;4.864;2023-02-28T07:00:05;4.72;;;1.40;;
71353;SDS011;59393;51.652;4.864;2023-02-28T07:02:32;6.45;;;2.08;;
71353;SDS011;59393;51.652;4.864;2023-02-28T07:04:58;5.30;;;1.90;;
71353;SDS011;59393;51.652;4.864;2023-02-28T07:07:24;6.15;;;1.75;;
71353;SDS011;59393;51.652;4.864;2023-02-28T07:09:50;5.57;;;1.48;;
71353;SDS011;59393;51.652;4.864;2023-02-28T07:12:16;6.15;;;1.90;;
71353;SDS011;59393;51.652;4.864;2023-02-28T07:14:42;5.63;;;1.52;;
71353;SDS011;59393;51.652;4.864;2023-02-28T07:17:08;5.43;;;1.70;;
71353;SDS011;59393;51.652;4.864;2023-02-28T07:19:36;10.20;;;1.58;;
71353;SDS011;59393;51.652;4.864;2023-02-28T07:22:02;4.65;;;1.60;;
71353;SDS011;59393;51.652;4.864;2023-02-28T07:24:29;5.18;;;1.40;;
71353;SDS011;59393;51.652;4.864;2023-02-28T07:26:55;2.40;;;1.10;;
71353;SDS011;59393;51.652;4.864;2023-02-28T07:29:21;6.33;;;1.70;;
71353;SDS011;59393;51.652;4.864;2023-02-28T07:31:47;6.25;;;1.85;;
71353;SDS011;59393;51.652;4.864;2023-02-28T07:34:15;5.38;;;1.60;;
71353;SDS011;59393;51.652;4.864;2023-02-28T07:36:41;3.95;;;1.23;;
71353;SDS011;59393;51.652;4.864;2023-02-28T07:39:07;7.80;;;1.63;;
71353;SDS011;59393;51.652;4.864;2023-02-28T07:41:34;5.93;;;1.60;;
71353;SDS011;59393;51.652;4.864;2023-02-28T07:44:04;5.22;;;1.60;;
71353;SDS011;59393;51.652;4.864;2023-02-28T07:46:30;6.95;;;2.08;;
71353;SDS011;59393;51.652;4.864;2023-02-28T07:49:00;5.55;;;1.83;;
71353;SDS011;59393;51.652;4.864;2023-02-28T07:51:27;4.97;;;1.73;;
71353;SDS011;59393;51.652;4.864;2023-02-28T07:53:53;7.50;;;1.70;;
71353;SDS011;59393;51.652;4.864;2023-02-28T07:56:19;7.38;;;1.75;;
71353;SDS011;59393;51.652;4.864;2023-02-28T07:58:45;5.63;;;1.70;;
71353;SDS011;59393;51.652;4.864;2023-02-28T08:01:12;4.93;;;1.60;;
71353;SDS011;59393;51.652;4.864;2023-02-28T08:03:38;5.13;;;1.63;;
71353;SDS011;59393;51.652;4.864;2023-02-28T08:06:05;5.25;;;1.85;;
71353;SDS011;59393;51.652;4.864;2023-02-28T08:08:31;7.20;;;1.92;;
71353;SDS011;59393;51.652;4.864;2023-02-28T08:10:58;6.95;;;2.20;;
71353;SDS011;59393;51.652;4.864;2023-02-28T08:13:25;5.53;;;2.05;;
71353;SDS011;59393;51.652;4.864;2023-02-28T08:15:52;4.10;;;1.40;;
71353;SDS011;59393;51.652;4.864;2023-02-28T08:18:19;7.03;;;1.98;;
71353;SDS011;59393;51.652;4.864;2023-02-28T08:20:44;4.50;;;1.55;;
71353;SDS011;59393;51.652;4.864;2023-02-28T08:23:10;5.05;;;1.70;;
71353;SDS011;59393;51.652;4.864;2023-02-28T08:25:36;6.20;;;1.63;;
71353;SDS011;59393;51.652;4.864;2023-02-28T08:28:02;4.20;;;1.63;;
71353;SDS011;59393;51.652;4.864;2023-02-28T08:30:28;8.70;;;2.20;;
71353;SDS011;59393;51.652;4.864;2023-02-28T08:32:54;5.40;;;2.00;;
71353;SDS011;59393;51.652;4.864;2023-02-28T08:35:21;6.23;;;1.70;;
71353;SDS011;59393;51.652;4.864;2023-02-28T08:37:47;5.07;;;1.50;;
71353;SDS011;59393;51.652;4.864;2023-02-28T08:40:14;6.00;;;1.95;;
71353;SDS011;59393;51.652;4.864;2023-02-28T08:42:43;6.70;;;1.80;;
71353;SDS011;59393;51.652;4.864;2023-02-28T08:45:09;4.75;;;1.67;;
71353;SDS011;59393;51.652;4.864;2023-02-28T08:47:36;4.67;;;1.40;;
71353;SDS011;59393;51.652;4.864;2023-02-28T08:50:02;5.10;;;1.90;;
71353;SDS011;59393;51.652;4.864;2023-02-28T08:52:28;5.85;;;1.80;;
71353;SDS011;59393;51.652;4.864;2023-02-28T08:54:54;4.70;;;1.60;;
71353;SDS011;59393;51.652;4.864;2023-02-28T08:57:20;5.03;;;1.57;;
71353;SDS011;59393;51.652;4.864;2023-02-28T08:59:46;5.32;;;1.55;;
71353;SDS011;59393;51.652;4.864;2023-02-28T09:02:13;4.03;;;1.30;;
71353;SDS011;59393;51.652;4.864;2023-02-28T09:04:39;3.17;;;1.08;;
71353;SDS011;59393;51.652;4.864;2023-02-28T09:07:05;5.03;;;1.60;;
71353;SDS011;59393;51.652;4.864;2023-02-28T09:09:34;2.57;;;1.00;;
71353;SDS011;59393;51.652;4.864;2023-02-28T09:12:00;2.92;;;1.05;;
71353;SDS011;59393;51.652;4.864;2023-02-28T09:14:26;4.20;;;1.55;;
71353;SDS011;59393;51.652;4.864;2023-02-28T09:16:53;1.55;;;0.65;;
71353;SDS011;59393;51.652;4.864;2023-02-28T09:19:19;2.63;;;0.88;;
71353;SDS011;59393;51.652;4.864;2023-02-28T09:21:45;5.43;;;1.03;;
71353;SDS011;59393;51.652;4.864;2023-02-28T09:24:11;3.38;;;1.02;;
71353;SDS011;59393;51.652;4.864;2023-02-28T09:26:40;4.10;;;0.95;;
71353;SDS011;59393;51.652;4.864;2023-02-28T09:29:06;3.28;;;1.17;;
71353;SDS011;59393;51.652;4.864;2023-02-28T09:31:32;1.65;;;0.60;;
71353;SDS011;59393;51.652;4.864;2023-02-28T09:33:58;2.47;;;0.70;;
71353;SDS011;59393;51.652;4.864;2023-02-28T09:36:25;4.43;;;1.10;;
71353;SDS011;59393;51.652;4.864;2023-02-28T09:38:51;5.93;;;0.98;;
71353;SDS011;59393;51.652;4.864;2023-02-28T09:41:22;2.95;;;0.95;;
71353;SDS011;59393;51.652;4.864;2023-02-28T09:43:53;3.10;;;0.80;;
71353;SDS011;59393;51.652;4.864;2023-02-28T09:48:49;1.73;;;0.80;;
71353;SDS011;59393;51.652;4.864;2023-02-28T09:53:54;2.30;;;0.82;;
71353;SDS011;59393;51.652;4.864;2023-02-28T09:56:22;2.30;;;0.87;;
71353;SDS011;59393;51.652;4.864;2023-02-28T10:06:36;4.30;;;1.20;;
71353;SDS011;59393;51.652;4.864;2023-02-28T10:09:13;4.40;;;0.90;;
71353;SDS011;59393;51.652;4.864;2023-02-28T10:11:41;3.00;;;1.00;;
71353;SDS011;59393;51.652;4.864;2023-02-28T10:14:15;3.35;;;1.05;;
71353;SDS011;59393;51.652;4.864;2023-02-28T10:16:46;4.18;;;0.93;;
71353;SDS011;59393;51.652;4.864;2023-02-28T10:19:19;2.95;;;0.90;;
71353;SDS011;59393;51.652;4.864;2023-02-28T10:21:59;2.03;;;0.80;;
71353;SDS011;59393;51.652;4.864;2023-02-28T10:24:30;2.13;;;0.80;;
71353;SDS011;59393;51.652;4.864;2023-02-28T10:27:06;4.97;;;1.05;;
71353;SDS011;59393;51.652;4.864;2023-02-28T10:29:32;4.00;;;1.05;;
71353;SDS011;59393;51.652;4.864;2023-02-28T10:31:58;3.65;;;1.10;;
71353;SDS011;59393;51.652;4.864;2023-02-28T10:34:27;3.10;;;0.87;;
71353;SDS011;59393;51.652;4.864;2023-02-28T10:36:53;2.30;;;0.90;;
71353;SDS011;59393;51.652;4.864;2023-02-28T10:39:39;3.55;;;1.08;;
71353;SDS011;59393;51.652;4.864;2023-02-28T10:42:18;2.78;;;1.00;;
71353;SDS011;59393;51.652;4.864;2023-02-28T10:44:45;4.70;;;1.13;;
71353;SDS011;59393;51.652;4.864;2023-02-28T10:47:15;4.23;;;1.23;;
71353;SDS011;59393;51.652;4.864;2023-02-28T10:49:49;2.25;;;0.80;;
71353;SDS011;59393;51.652;4.864;2023-02-28T10:52:32;2.38;;;0.70;;
71353;SDS011;59393;51.652;4.864;2023-02-28T10:57:43;3.28;;;0.68;;
71353;SDS011;59393;51.652;4.864;2023-02-28T11:00:20;4.10;;;1.17;;
71353;SDS011;59393;51.652;4.864;2023-02-28T11:02:47;1.58;;;0.73;;
71353;SDS011;59393;51.652;4.864;2023-02-28T11:05:27;3.50;;;0.85;;
71353;SDS011;59393;51.652;4.864;2023-02-28T11:07:59;2.80;;;0.90;;
71353;SDS011;59393;51.652;4.864;2023-02-28T11:10:28;3.42;;;1.08;;
71353;SDS011;59393;51.652;4.864;2023-02-28T11:12:55;3.57;;;1.10;;
71353;SDS011;59393;51.652;4.864;2023-02-28T11:15:26;2.13;;;0.77;;
71353;SDS011;59393;51.652;4.864;2023-02-28T11:17:53;3.22;;;1.02;;
71353;SDS011;59393;51.652;4.864;2023-02-28T11:20:21;2.05;;;0.80;;
71353;SDS011;59393;51.652;4.864;2023-02-28T11:22:48;2.05;;;0.80;;
71353;SDS011;59393;51.652;4.864;2023-02-28T11:25:19;1.37;;;0.50;;
71353;SDS011;59393;51.652;4.864;2023-02-28T11:27:50;3.38;;;0.77;;
71353;SDS011;59393;51.652;4.864;2023-02-28T11:32:48;3.17;;;1.00;;
71353;SDS011;59393;51.652;4.864;2023-02-28T11:35:36;2.17;;;0.63;;
71353;SDS011;59393;51.652;4.864;2023-02-28T11:38:01;3.83;;;0.90;;
71353;SDS011;59393;51.652;4.864;2023-02-28T11:40:30;2.50;;;0.70;;
71353;SDS011;59393;51.652;4.864;2023-02-28T11:48:10;1.55;;;0.63;;
71353;SDS011;59393;51.652;4.864;2023-02-28T11:58:44;3.10;;;0.90;;
71353;SDS011;59393;51.652;4.864;2023-02-28T12:06:23;1.75;;;0.60;;
71353;SDS011;59393;51.652;4.864;2023-02-28T12:12:19;2.35;;;0.65;;
71353;SDS011;59393;51.652;4.864;2023-02-28T12:16:50;2.47;;;0.80;;
71353;SDS011;59393;51.652;4.864;2023-02-28T12:19:26;4.05;;;0.90;;
71353;SDS011;59393;51.652;4.864;2023-02-28T12:22:01;2.88;;;0.75;;
71353;SDS011;59393;51.652;4.864;2023-02-28T12:24:44;3.53;;;0.85;;
71353;SDS011;59393;51.652;4.864;2023-02-28T12:27:15;5.47;;;1.93;;
71353;SDS011;59393;51.652;4.864;2023-02-28T12:30:03;3.97;;;1.02;;
71353;SDS011;59393;51.652;4.864;2023-02-28T12:32:33;3.80;;;1.27;;
71353;SDS011;59393;51.652;4.864;2023-02-28T12:35:02;2.78;;;1.05;;
71353;SDS011;59393;51.652;4.864;2023-02-28T12:40:34;1.43;;;0.60;;
71353;SDS011;59393;51.652;4.864;2023-02-28T12:43:06;2.47;;;0.90;;
71353;SDS011;59393;51.652;4.864;2023-02-28T12:48:04;1.85;;;0.70;;
71353;SDS011;59393;51.652;4.864;2023-02-28T12:50:32;2.28;;;0.65;;
71353;SDS011;59393;51.652;4.864;2023-02-28T12:53:02;4.53;;;1.27;;
71353;SDS011;59393;51.652;4.864;2023-02-28T12:58:08;2.35;;;0.98;;
71353;SDS011;59393;51.652;4.864;2023-02-28T13:00:38;1.75;;;0.75;;
71353;SDS011;59393;51.652;4.864;2023-02-28T13:11:05;4.85;;;1.15;;
71353;SDS011;59393;51.652;4.864;2023-02-28T13:13:31;3.97;;;1.10;;
71353;SDS011;59393;51.652;4.864;2023-02-28T13:16:05;4.18;;;0.93;;
71353;SDS011;59393;51.652;4.864;2023-02-28T13:18:35;3.30;;;1.00;;
71353;SDS011;59393;51.652;4.864;2023-02-28T13:21:02;3.50;;;1.00;;
71353;SDS011;59393;51.652;4.864;2023-02-28T13:23:41;4.90;;;1.65;;
71353;SDS011;59393;51.652;4.864;2023-02-28T13:26:22;1.90;;;0.73;;
71353;SDS011;59393;51.652;4.864;2023-02-28T13:31:15;3.10;;;1.20;;
71353;SDS011;59393;51.652;4.864;2023-02-28T13:38:44;4.85;;;1.08;;
71353;SDS011;59393;51.652;4.864;2023-02-28T13:44:07;3.13;;;0.93;;
71353;SDS011;59393;51.652;4.864;2023-02-28T13:46:34;3.63;;;1.10;;
71353;SDS011;59393;51.652;4.864;2023-02-28T13:51:47;2.75;;;1.13;;
71353;SDS011;59393;51.652;4.864;2023-02-28T13:54:18;2.70;;;1.10;;
71353;SDS011;59393;51.652;4.864;2023-02-28T13:56:50;4.27;;;1.50;;
71353;SDS011;59393;51.652;4.864;2023-02-28T13:59:24;2.70;;;0.90;;
71353;SDS011;59393;51.652;4.864;2023-02-28T14:02:17;1.83;;;0.60;;
71353;SDS011;59393;51.652;4.864;2023-02-28T14:07:41;2.53;;;1.05;;
71353;SDS011;59393;51.652;4.864;2023-02-28T14:10:15;2.73;;;1.10;;
71353;SDS011;59393;51.652;4.864;2023-02-28T14:13:02;3.53;;;1.10;;
71353;SDS011;59393;51.652;4.864;2023-02-28T14:17:55;3.25;;;1.20;;
71353;SDS011;59393;51.652;4.864;2023-02-28T14:20:24;4.25;;;1.10;;
71353;SDS011;59393;51.652;4.864;2023-02-28T14:22:58;3.73;;;1.40;;
71353;SDS011;59393;51.652;4.864;2023-02-28T14:25:31;3.38;;;1.00;;
71353;SDS011;59393;51.652;4.864;2023-02-28T14:28:09;1.60;;;0.75;;
71353;SDS011;59393;51.652;4.864;2023-02-28T14:33:18;1.35;;;0.57;;
71353;SDS011;59393;51.652;4.864;2023-02-28T14:38:42;2.05;;;0.90;;
71353;SDS011;59393;51.652;4.864;2023-02-28T14:41:16;1.42;;;0.80;;
71353;SDS011;59393;51.652;4.864;2023-02-28T14:43:53;4.22;;;1.10;;
71353;SDS011;59393;51.652;4.864;2023-02-28T14:46:20;4.10;;;1.40;;
71353;SDS011;59393;51.652;4.864;2023-02-28T14:48:47;5.97;;;1.33;;
71353;SDS011;59393;51.652;4.864;2023-02-28T14:51:17;4.45;;;1.52;;
71353;SDS011;59393;51.652;4.864;2023-02-28T14:53:44;4.00;;;1.45;;
71353;SDS011;59393;51.652;4.864;2023-02-28T14:56:21;5.13;;;1.23;;
71353;SDS011;59393;51.652;4.864;2023-02-28T14:58:51;5.03;;;1.67;;
71353;SDS011;59393;51.652;4.864;2023-02-28T15:01:19;3.37;;;0.70;;
71353;SDS011;59393;51.652;4.864;2023-02-28T15:03:46;3.28;;;1.20;;
71353;SDS011;59393;51.652;4.864;2023-02-28T15:06:13;3.40;;;1.13;;
71353;SDS011;59393;51.652;4.864;2023-02-28T15:08:40;5.35;;;1.15;;
71353;SDS011;59393;51.652;4.864;2023-02-28T15:11:18;2.28;;;0.73;;
71353;SDS011;59393;51.652;4.864;2023-02-28T15:13:53;3.00;;;1.00;;
71353;SDS011;59393;51.652;4.864;2023-02-28T15:16:24;4.05;;;1.20;;
71353;SDS011;59393;51.652;4.864;2023-02-28T15:18:55;2.20;;;1.00;;
71353;SDS011;59393;51.652;4.864;2023-02-28T15:21:25;1.90;;;0.70;;
71353;SDS011;59393;51.652;4.864;2023-02-28T15:23:53;4.82;;;1.67;;
71353;SDS011;59393;51.652;4.864;2023-02-28T15:26:21;2.37;;;0.97;;
71353;SDS011;59393;51.652;4.864;2023-02-28T15:28:52;4.50;;;1.30;;
71353;SDS011;59393;51.652;4.864;2023-02-28T15:31:22;1.60;;;0.70;;
71353;SDS011;59393;51.652;4.864;2023-02-28T15:33:55;2.85;;;0.98;;
71353;SDS011;59393;51.652;4.864;2023-02-28T15:36:24;5.30;;;1.60;;
71353;SDS011;59393;51.652;4.864;2023-02-28T15:38:52;3.50;;;1.37;;
71353;SDS011;59393;51.652;4.864;2023-02-28T15:41:24;6.32;;;1.30;;
71353;SDS011;59393;51.652;4.864;2023-02-28T15:44:13;1.90;;;0.70;;
71353;SDS011;59393;51.652;4.864;2023-02-28T15:46:36;4.60;;;1.27;;
71353;SDS011;59393;51.652;4.864;2023-02-28T15:49:03;2.90;;;1.05;;
71353;SDS011;59393;51.652;4.864;2023-02-28T15:51:33;3.37;;;1.20;;
71353;SDS011;59393;51.652;4.864;2023-02-28T15:54:00;4.97;;;0.95;;
71353;SDS011;59393;51.652;4.864;2023-02-28T15:56:28;3.08;;;1.20;;
71353;SDS011;59393;51.652;4.864;2023-02-28T15:58:55;3.67;;;1.33;;
71353;SDS011;59393;51.652;4.864;2023-02-28T16:01:25;5.22;;;1.70;;
71353;SDS011;59393;51.652;4.864;2023-02-28T16:03:53;4.27;;;1.40;;
71353;SDS011;59393;51.652;4.864;2023-02-28T16:08:49;3.30;;;1.25;;
71353;SDS011;59393;51.652;4.864;2023-02-28T16:11:16;3.65;;;1.13;;
71353;SDS011;59393;51.652;4.864;2023-02-28T16:13:42;5.18;;;1.70;;
71353;SDS011;59393;51.652;4.864;2023-02-28T16:16:08;2.33;;;0.93;;
71353;SDS011;59393;51.652;4.864;2023-02-28T16:18:40;4.50;;;1.50;;
71353;SDS011;59393;51.652;4.864;2023-02-28T16:21:06;3.33;;;1.42;;
71353;SDS011;59393;51.652;4.864;2023-02-28T16:23:32;3.38;;;1.30;;
71353;SDS011;59393;51.652;4.864;2023-02-28T16:25:58;4.23;;;1.37;;
71353;SDS011;59393;51.652;4.864;2023-02-28T16:28:29;2.70;;;0.95;;
71353;SDS011;59393;51.652;4.864;2023-02-28T16:30:57;1.80;;;0.70;;
71353;SDS011;59393;51.652;4.864;2023-02-28T16:33:23;3.00;;;0.98;;
71353;SDS011;59393;51.652;4.864;2023-02-28T16:35:49;6.97;;;1.27;;
71353;SDS011;59393;51.652;4.864;2023-02-28T16:38:15;3.00;;;1.07;;
71353;SDS011;59393;51.652;4.864;2023-02-28T16:40:41;2.70;;;0.98;;
71353;SDS011;59393;51.652;4.864;2023-02-28T16:43:10;2.55;;;0.93;;
71353;SDS011;59393;51.652;4.864;2023-02-28T16:45:40;3.33;;;1.20;;
71353;SDS011;59393;51.652;4.864;2023-02-28T16:48:07;4.28;;;1.35;;